»·PEaware :: UAL253 KDEN-KGEG

UAL253 :: KDEN-KGEG

FLIGHT INFORMATION

Flight Status: Arrived
Operator:
United Airlines
More flights by this operator :: More flights under this callsign
Pilot: Will D. (10979)
Aircraft: BOEING 737-800
(B738)
More flights by this aircraft type
Origin: KDEN Denver Intl
United States
Destination: KGEG Spokane Intl
United States
More flights between these airports :: More routes between these airports
Route: +RIKKK3 FISAR BOY MLP HILIE2
File this flight plan on PilotEdge
Remarks:
Altitude:
(Current/Filed)
36,000ft
Speed:
(Current/Filed)
470kts
Departed: 11-Apr-18 05:37 PM
Arrived: 11-Apr-18 07:42 PM
Distance/Time
Traveled:
725nm/2:05
Distance/Time
To Go:
Arrived

Flight Plot

Page will automatically refresh every two minutes.

Flight plan parsing failed; only flown route is shown


Map Options




Map Legend


Flown Route
Filed Route
Departure Airport
Arrival Airport
Navaid (VOR, NDB)
Fix

Horizontal Profiles

Position Reports

Time Latitude Longitude Heading Altitude Ground
Speed
11-Apr-18 17:14 39.858144 -104.672847 0 5439ft 0kts
11-Apr-18 17:15 39.858144 -104.672847 0 5439ft 0kts
11-Apr-18 17:16 39.858144 -104.672847 0 5439ft 0kts
11-Apr-18 17:17 39.858144 -104.672847 0 5439ft 0kts
11-Apr-18 17:18 39.858144 -104.672847 0 5439ft 0kts
11-Apr-18 17:19 39.858144 -104.672847 0 5439ft 0kts
11-Apr-18 17:20 39.858144 -104.672847 0 5439ft 0kts
11-Apr-18 17:21 39.858144 -104.672847 0 5439ft 0kts
11-Apr-18 17:22 39.858144 -104.672847 0 5439ft 0kts
11-Apr-18 17:23 39.858144 -104.672847 0 5439ft 0kts
11-Apr-18 17:24 39.857979 -104.672847 0 5439ft 2kts
11-Apr-18 17:25 39.857170 -104.672847 359 5439ft 2kts
11-Apr-18 17:26 39.857040 -104.672847 359 5439ft 0kts
11-Apr-18 17:27 39.857286 -104.673349 282 5439ft 12kts
11-Apr-18 17:28 39.857414 -104.677101 270 5439ft 17kts
11-Apr-18 17:29 39.857028 -104.679475 197 5439ft 0kts
11-Apr-18 17:30 39.857028 -104.679475 197 5439ft 0kts
11-Apr-18 17:31 39.856803 -104.681458 275 5439ft 21kts
11-Apr-18 17:32 39.858314 -104.683984 0 5439ft 0kts
11-Apr-18 17:33 39.862572 -104.683944 359 5439ft 25kts
11-Apr-18 17:34 39.864326 -104.685696 271 5439ft 0kts
11-Apr-18 17:35 39.864326 -104.685696 271 5439ft 0kts
11-Apr-18 17:36 39.866239 -104.687170 359 5439ft 48kts
11-Apr-18 17:37 39.904385 -104.686607 1 6750ft 171kts
11-Apr-18 17:38 39.948932 -104.682072 4 8067ft 226kts
11-Apr-18 17:39 40.021373 -104.664079 8 8797ft 282kts
11-Apr-18 17:40 40.100832 -104.668130 344 10785ft 297kts
11-Apr-18 17:41 40.190943 -104.693018 344 12413ft 361kts
11-Apr-18 17:42 40.291758 -104.719794 343 15214ft 377kts
11-Apr-18 17:43 40.395984 -104.747214 342 17899ft 388kts
11-Apr-18 17:44 40.503232 -104.775471 342 20326ft 399kts
11-Apr-18 17:45 40.614144 -104.804893 341 22510ft 409kts
11-Apr-18 17:46 40.727235 -104.834955 341 24408ft 419kts
11-Apr-18 17:47 40.839005 -104.876209 332 26211ft 417kts
11-Apr-18 17:48 40.948680 -104.930498 332 27784ft 424kts
11-Apr-18 17:49 41.059751 -104.985381 332 29193ft 429kts
11-Apr-18 17:50 41.170934 -105.040189 331 30871ft 424kts
11-Apr-18 17:51 41.280662 -105.094419 331 32431ft 419kts
11-Apr-18 17:52 41.389052 -105.148255 330 33928ft 412kts
11-Apr-18 17:53 41.496249 -105.201870 330 35114ft 412kts
11-Apr-18 17:54 41.589277 -105.280441 306 35870ft 391kts
11-Apr-18 17:55 41.661665 -105.387611 305 35882ft 383kts
11-Apr-18 17:56 41.731690 -105.494602 305 35882ft 382kts
11-Apr-18 17:57 41.801383 -105.602189 304 35870ft 382kts
11-Apr-18 17:58 41.870899 -105.709481 304 35876ft 381kts
11-Apr-18 17:59 41.940284 -105.817442 304 35884ft 380kts
11-Apr-18 18:00 42.009201 -105.925262 304 35891ft 380kts
11-Apr-18 18:01 42.077913 -106.033231 304 35893ft 380kts
11-Apr-18 18:02 42.146609 -106.141599 304 35889ft 380kts
11-Apr-18 18:03 42.214970 -106.249844 304 35884ft 379kts
11-Apr-18 18:04 42.283448 -106.358674 303 35877ft 380kts
11-Apr-18 18:05 42.351756 -106.467639 303 35869ft 378kts
11-Apr-18 18:06 42.419466 -106.576050 303 35871ft 379kts
11-Apr-18 18:07 42.487457 -106.685310 303 35862ft 378kts
11-Apr-18 18:08 42.555312 -106.794755 303 35858ft 379kts
11-Apr-18 18:09 42.622880 -106.904147 303 35854ft 379kts
11-Apr-18 18:10 42.690342 -107.013770 303 35853ft 378kts
11-Apr-18 18:11 42.757783 -107.123769 302 35854ft 378kts
11-Apr-18 18:12 42.825178 -107.234106 302 35855ft 377kts
11-Apr-18 18:13 42.892316 -107.344433 302 35850ft 378kts
11-Apr-18 18:14 42.959117 -107.454623 302 35840ft 377kts
11-Apr-18 18:15 43.026066 -107.565468 302 35840ft 377kts
11-Apr-18 18:16 43.092488 -107.675864 301 35835ft 376kts
11-Apr-18 18:17 43.159005 -107.786831 301 35833ft 376kts
11-Apr-18 18:18 43.225398 -107.898016 301 35833ft 376kts
11-Apr-18 18:19 43.291674 -108.008946 301 35827ft 375kts
11-Apr-18 18:20 43.357502 -108.120050 300 35829ft 375kts
11-Apr-18 18:21 43.423368 -108.231960 300 35828ft 375kts
11-Apr-18 18:22 43.489767 -108.343347 301 35826ft 377kts
11-Apr-18 18:23 43.557265 -108.453169 301 35824ft 376kts
11-Apr-18 18:24 43.624756 -108.563742 300 35823ft 376kts
11-Apr-18 18:25 43.691748 -108.673899 301 35822ft 377kts
11-Apr-18 18:26 43.759834 -108.785217 301 35829ft 377kts
11-Apr-18 18:27 43.827178 -108.896166 300 35832ft 377kts
11-Apr-18 18:28 43.894604 -109.007858 300 35841ft 377kts
11-Apr-18 18:29 43.961719 -109.119543 300 35860ft 377kts
11-Apr-18 18:30 44.028664 -109.231401 300 35860ft 376kts
11-Apr-18 18:31 44.095704 -109.343878 299 35861ft 377kts
11-Apr-18 18:32 44.162542 -109.456462 299 35865ft 376kts
11-Apr-18 18:33 44.228995 -109.568837 299 35872ft 376kts
11-Apr-18 18:34 44.295499 -109.681741 299 35883ft 376kts
11-Apr-18 18:35 44.362000 -109.795082 299 35897ft 377kts
11-Apr-18 18:36 44.428650 -109.909133 299 35915ft 377kts
11-Apr-18 18:37 44.494837 -110.022843 299 35929ft 377kts
11-Apr-18 18:38 44.560995 -110.136953 299 35933ft 378kts
11-Apr-18 18:39 44.627254 -110.251698 299 35939ft 378kts
11-Apr-18 18:40 44.693529 -110.366936 299 35942ft 378kts
11-Apr-18 18:41 44.759388 -110.481912 298 35931ft 378kts
11-Apr-18 18:42 44.825419 -110.597653 298 35911ft 379kts
11-Apr-18 18:43 44.891276 -110.713561 298 35890ft 379kts
11-Apr-18 18:44 44.957139 -110.829944 298 35871ft 380kts
11-Apr-18 18:45 45.022855 -110.946558 298 35862ft 379kts
11-Apr-18 18:46 45.088543 -111.063598 298 35854ft 379kts
11-Apr-18 18:47 45.154229 -111.181115 298 35838ft 379kts
11-Apr-18 18:48 45.219621 -111.298595 298 35830ft 381kts
11-Apr-18 18:49 45.285288 -111.417059 297 35828ft 381kts
11-Apr-18 18:50 45.350765 -111.535676 297 35828ft 381kts
11-Apr-18 18:51 45.416056 -111.654451 297 35828ft 381kts
11-Apr-18 18:52 45.481517 -111.774032 297 35819ft 382kts
11-Apr-18 18:53 45.546884 -111.893961 297 35809ft 383kts
11-Apr-18 18:54 45.612082 -112.014078 297 35801ft 383kts
11-Apr-18 18:55 45.677167 -112.134507 297 35792ft 383kts
11-Apr-18 18:56 45.742215 -112.255381 297 35784ft 383kts
11-Apr-18 18:57 45.807017 -112.376310 297 35781ft 384kts
11-Apr-18 18:58 45.871883 -112.497888 297 35779ft 384kts
11-Apr-18 18:59 45.936766 -112.620026 297 35779ft 384kts
11-Apr-18 19:00 46.001599 -112.742597 296 35778ft 385kts
11-Apr-18 19:01 46.066533 -112.865911 297 35775ft 389kts
11-Apr-18 19:02 46.132029 -112.990830 297 35772ft 390kts
11-Apr-18 19:03 46.197626 -113.116501 297 35769ft 392kts
11-Apr-18 19:04 46.263107 -113.242515 297 35766ft 394kts
11-Apr-18 19:05 46.328691 -113.369299 297 35764ft 393kts
11-Apr-18 19:06 46.394248 -113.496613 296 35761ft 394kts
11-Apr-18 19:07 46.459742 -113.624384 296 35758ft 395kts
11-Apr-18 19:08 46.525209 -113.752685 296 35755ft 395kts
11-Apr-18 19:09 46.590455 -113.881154 296 35752ft 395kts
11-Apr-18 19:10 46.655531 -114.009873 296 35746ft 396kts
11-Apr-18 19:11 46.721184 -114.140343 296 35748ft 400kts
11-Apr-18 19:12 46.786888 -114.271526 296 35746ft 401kts
11-Apr-18 19:13 46.852650 -114.403457 296 35745ft 402kts
11-Apr-18 19:14 46.918347 -114.535883 297 35742ft 402kts
11-Apr-18 19:15 46.983848 -114.668542 297 35736ft 403kts
11-Apr-18 19:16 47.049533 -114.802208 297 35729ft 404kts
11-Apr-18 19:17 47.115169 -114.936440 297 35721ft 404kts
11-Apr-18 19:18 47.180926 -115.071571 297 35715ft 407kts
11-Apr-18 19:19 47.246261 -115.206479 296 34029ft 405kts
11-Apr-18 19:20 47.312277 -115.342733 297 31070ft 406kts
11-Apr-18 19:21 47.376377 -115.476642 297 28823ft 394kts
11-Apr-18 19:22 47.438145 -115.607460 293 26693ft 382kts
11-Apr-18 19:23 47.462272 -115.753734 272 24530ft 363kts
11-Apr-18 19:24 47.472140 -115.902088 272 22423ft 362kts
11-Apr-18 19:25 47.481137 -116.050202 271 20316ft 363kts
11-Apr-18 19:26 47.490085 -116.198794 272 18232ft 363kts
11-Apr-18 19:27 47.499307 -116.345725 272 16523ft 354kts
11-Apr-18 19:28 47.507870 -116.490875 271 14583ft 354kts
11-Apr-18 19:29 47.515238 -116.634971 271 12685ft 349kts
11-Apr-18 19:30 47.522846 -116.771972 270 11999ft 308kts
11-Apr-18 19:31 47.528615 -116.880755 270 11197ft 273kts
11-Apr-18 19:32 47.535015 -116.991663 283 9652ft 267kts
11-Apr-18 19:33 47.591410 -117.066066 318 8859ft 283kts
11-Apr-18 19:34 47.649772 -117.144116 315 7945ft 278kts
11-Apr-18 19:35 47.696594 -117.208945 315 7366ft 251kts
11-Apr-18 19:36 47.743572 -117.286294 278 5564ft 253kts
11-Apr-18 19:37 47.726541 -117.375967 223 4954ft 194kts
11-Apr-18 19:38 47.691791 -117.426956 224 4062ft 162kts
11-Apr-18 19:39 47.661608 -117.472467 223 3224ft 153kts
11-Apr-18 19:40 47.630394 -117.519522 225 2403ft 158kts
11-Apr-18 19:41 47.617830 -117.539857 273 2380ft 12kts
11-Apr-18 19:42 47.617837 -117.540089 272 2380ft 0kts
11-Apr-18 19:43 47.617936 -117.541330 311 2380ft 10kts
11-Apr-18 19:44 47.621519 -117.537680 44 2380ft 12kts
11-Apr-18 19:45 47.624733 -117.536167 347 2380ft 17kts
11-Apr-18 19:46 47.624951 -117.536327 315 2380ft 0kts

Navigation Log

Ident Type
Flight plan parsing failed, navigation log unavailable